sensor_id;sensor_type;location;lat;lon;timestamp;P1;durP1;ratioP1;P2;durP2;ratioP2
66946;SDS011;53853;51.982;5.928;2023-07-20T00:02:13;9.40;;;6.05;;
66946;SDS011;53853;51.982;5.928;2023-07-20T00:04:43;7.63;;;4.93;;
66946;SDS011;53853;51.982;5.928;2023-07-20T00:07:13;6.93;;;4.80;;
66946;SDS011;53853;51.982;5.928;2023-07-20T00:09:43;7.90;;;4.78;;
66946;SDS011;53853;51.982;5.928;2023-07-20T00:12:13;5.43;;;4.65;;
66946;SDS011;53853;51.982;5.928;2023-07-20T00:14:43;8.30;;;5.18;;
66946;SDS011;53853;51.982;5.928;2023-07-20T00:17:16;6.97;;;5.32;;
66946;SDS011;53853;51.982;5.928;2023-07-20T00:19:46;7.68;;;5.47;;
66946;SDS011;53853;51.982;5.928;2023-07-20T00:22:15;7.13;;;5.93;;
66946;SDS011;53853;51.982;5.928;2023-07-20T00:24:45;6.00;;;4.90;;
66946;SDS011;53853;51.982;5.928;2023-07-20T00:27:15;7.10;;;5.65;;
66946;SDS011;53853;51.982;5.928;2023-07-20T00:29:45;6.80;;;4.53;;
66946;SDS011;53853;51.982;5.928;2023-07-20T00:32:18;6.75;;;4.35;;
66946;SDS011;53853;51.982;5.928;2023-07-20T00:34:49;7.70;;;4.50;;
66946;SDS011;53853;51.982;5.928;2023-07-20T00:37:19;5.13;;;4.53;;
66946;SDS011;53853;51.982;5.928;2023-07-20T00:39:49;10.30;;;5.60;;
66946;SDS011;53853;51.982;5.928;2023-07-20T00:42:19;9.00;;;5.13;;
66946;SDS011;53853;51.982;5.928;2023-07-20T00:44:51;5.32;;;4.57;;
66946;SDS011;53853;51.982;5.928;2023-07-20T00:47:24;7.63;;;4.68;;
66946;SDS011;53853;51.982;5.928;2023-07-20T00:49:54;7.22;;;4.75;;
66946;SDS011;53853;51.982;5.928;2023-07-20T00:52:24;6.18;;;4.53;;
66946;SDS011;53853;51.982;5.928;2023-07-20T00:54:56;6.15;;;4.22;;
66946;SDS011;53853;51.982;5.928;2023-07-20T00:57:26;8.35;;;5.32;;
66946;SDS011;53853;51.982;5.928;2023-07-20T00:59:56;7.10;;;4.07;;
66946;SDS011;53853;51.982;5.928;2023-07-20T01:02:28;5.55;;;4.30;;
66946;SDS011;53853;51.982;5.928;2023-07-20T01:04:59;6.90;;;4.80;;
66946;SDS011;53853;51.982;5.928;2023-07-20T01:07:31;3.60;;;2.72;;
66946;SDS011;53853;51.982;5.928;2023-07-20T01:10:06;5.90;;;4.18;;
66946;SDS011;53853;51.982;5.928;2023-07-20T01:12:46;5.15;;;3.65;;
66946;SDS011;53853;51.982;5.928;2023-07-20T01:15:20;5.47;;;3.42;;
66946;SDS011;53853;51.982;5.928;2023-07-20T01:17:52;6.78;;;5.03;;
66946;SDS011;53853;51.982;5.928;2023-07-20T01:20:22;5.28;;;4.07;;
66946;SDS011;53853;51.982;5.928;2023-07-20T01:26:02;6.72;;;4.45;;
66946;SDS011;53853;51.982;5.928;2023-07-20T01:31:47;4.57;;;3.88;;
66946;SDS011;53853;51.982;5.928;2023-07-20T01:34:20;5.47;;;4.57;;
66946;SDS011;53853;51.982;5.928;2023-07-20T01:36:53;5.60;;;3.60;;
66946;SDS011;53853;51.982;5.928;2023-07-20T01:39:24;7.82;;;4.45;;
66946;SDS011;53853;51.982;5.928;2023-07-20T01:41:55;4.18;;;3.55;;
66946;SDS011;53853;51.982;5.928;2023-07-20T01:44:26;5.93;;;4.05;;
66946;SDS011;53853;51.982;5.928;2023-07-20T01:47:00;4.97;;;3.67;;
66946;SDS011;53853;51.982;5.928;2023-07-20T01:49:30;3.40;;;2.80;;
66946;SDS011;53853;51.982;5.928;2023-07-20T01:52:00;4.68;;;3.80;;
66946;SDS011;53853;51.982;5.928;2023-07-20T01:54:30;3.88;;;2.40;;
66946;SDS011;53853;51.982;5.928;2023-07-20T01:57:00;3.70;;;2.75;;
66946;SDS011;53853;51.982;5.928;2023-07-20T01:59:30;5.00;;;3.47;;
66946;SDS011;53853;51.982;5.928;2023-07-20T02:02:02;3.13;;;2.22;;
66946;SDS011;53853;51.982;5.928;2023-07-20T02:04:33;5.88;;;2.53;;
66946;SDS011;53853;51.982;5.928;2023-07-20T02:07:03;4.10;;;3.22;;
66946;SDS011;53853;51.982;5.928;2023-07-20T02:09:33;3.28;;;2.60;;
66946;SDS011;53853;51.982;5.928;2023-07-20T02:12:03;5.13;;;3.00;;
66946;SDS011;53853;51.982;5.928;2023-07-20T02:14:33;4.88;;;3.45;;
66946;SDS011;53853;51.982;5.928;2023-07-20T02:17:07;3.63;;;2.92;;
66946;SDS011;53853;51.982;5.928;2023-07-20T02:19:37;3.83;;;2.40;;
66946;SDS011;53853;51.982;5.928;2023-07-20T02:22:09;2.85;;;2.35;;
66946;SDS011;53853;51.982;5.928;2023-07-20T02:24:39;5.40;;;2.75;;
66946;SDS011;53853;51.982;5.928;2023-07-20T02:27:09;3.10;;;1.98;;
66946;SDS011;53853;51.982;5.928;2023-07-20T02:29:40;3.20;;;2.05;;
66946;SDS011;53853;51.982;5.928;2023-07-20T02:32:13;2.38;;;1.27;;
66946;SDS011;53853;51.982;5.928;2023-07-20T02:34:43;4.00;;;2.20;;
66946;SDS011;53853;51.982;5.928;2023-07-20T02:37:13;3.78;;;2.10;;
66946;SDS011;53853;51.982;5.928;2023-07-20T02:39:43;3.58;;;1.80;;
66946;SDS011;53853;51.982;5.928;2023-07-20T02:42:13;2.95;;;1.50;;
66946;SDS011;53853;51.982;5.928;2023-07-20T02:44:43;2.47;;;1.50;;
66946;SDS011;53853;51.982;5.928;2023-07-20T02:47:16;3.47;;;1.83;;
66946;SDS011;53853;51.982;5.928;2023-07-20T02:49:46;3.38;;;1.73;;
66946;SDS011;53853;51.982;5.928;2023-07-20T02:52:16;1.90;;;1.23;;
66946;SDS011;53853;51.982;5.928;2023-07-20T02:54:46;2.22;;;1.50;;
66946;SDS011;53853;51.982;5.928;2023-07-20T02:57:16;2.35;;;1.48;;
66946;SDS011;53853;51.982;5.928;2023-07-20T02:59:46;1.75;;;1.10;;
66946;SDS011;53853;51.982;5.928;2023-07-20T03:02:18;4.70;;;1.60;;
66946;SDS011;53853;51.982;5.928;2023-07-20T03:04:48;2.30;;;1.70;;
66946;SDS011;53853;51.982;5.928;2023-07-20T03:07:18;2.33;;;1.73;;
66946;SDS011;53853;51.982;5.928;2023-07-20T03:09:48;2.53;;;1.48;;
66946;SDS011;53853;51.982;5.928;2023-07-20T03:12:19;2.33;;;1.38;;
66946;SDS011;53853;51.982;5.928;2023-07-20T03:14:50;2.67;;;1.60;;
66946;SDS011;53853;51.982;5.928;2023-07-20T03:17:22;2.20;;;1.52;;
66946;SDS011;53853;51.982;5.928;2023-07-20T03:19:52;3.05;;;1.90;;
66946;SDS011;53853;51.982;5.928;2023-07-20T03:22:22;2.95;;;1.70;;
66946;SDS011;53853;51.982;5.928;2023-07-20T03:24:52;3.47;;;2.00;;
66946;SDS011;53853;51.982;5.928;2023-07-20T03:27:22;2.40;;;1.50;;
66946;SDS011;53853;51.982;5.928;2023-07-20T03:29:52;2.25;;;1.60;;
66946;SDS011;53853;51.982;5.928;2023-07-20T03:32:24;1.85;;;1.33;;
66946;SDS011;53853;51.982;5.928;2023-07-20T03:34:55;2.03;;;1.50;;
66946;SDS011;53853;51.982;5.928;2023-07-20T03:37:25;2.42;;;1.48;;
66946;SDS011;53853;51.982;5.928;2023-07-20T03:39:55;2.45;;;1.50;;
66946;SDS011;53853;51.982;5.928;2023-07-20T03:42:25;1.55;;;1.20;;
66946;SDS011;53853;51.982;5.928;2023-07-20T03:44:55;4.63;;;1.77;;
66946;SDS011;53853;51.982;5.928;2023-07-20T03:47:28;2.03;;;1.50;;
66946;SDS011;53853;51.982;5.928;2023-07-20T03:49:58;2.42;;;1.45;;
66946;SDS011;53853;51.982;5.928;2023-07-20T03:52:29;1.80;;;1.25;;
66946;SDS011;53853;51.982;5.928;2023-07-20T03:54:59;2.25;;;1.50;;
66946;SDS011;53853;51.982;5.928;2023-07-20T03:57:29;2.85;;;1.80;;
66946;SDS011;53853;51.982;5.928;2023-07-20T03:59:59;1.55;;;1.00;;
66946;SDS011;53853;51.982;5.928;2023-07-20T04:02:41;1.63;;;1.15;;
66946;SDS011;53853;51.982;5.928;2023-07-20T04:05:11;1.98;;;1.38;;
66946;SDS011;53853;51.982;5.928;2023-07-20T04:07:41;1.90;;;1.10;;
66946;SDS011;53853;51.982;5.928;2023-07-20T04:10:11;2.38;;;1.17;;
66946;SDS011;53853;51.982;5.928;2023-07-20T04:12:41;2.75;;;1.90;;
66946;SDS011;53853;51.982;5.928;2023-07-20T04:15:12;3.42;;;1.73;;
66946;SDS011;53853;51.982;5.928;2023-07-20T04:17:45;1.90;;;1.40;;
66946;SDS011;53853;51.982;5.928;2023-07-20T04:20:15;2.90;;;1.75;;
66946;SDS011;53853;51.982;5.928;2023-07-20T04:22:45;2.22;;;1.17;;
66946;SDS011;53853;51.982;5.928;2023-07-20T04:25:16;1.98;;;1.50;;
66946;SDS011;53853;51.982;5.928;2023-07-20T04:27:46;2.25;;;1.48;;
66946;SDS011;53853;51.982;5.928;2023-07-20T04:30:17;2.25;;;1.58;;
66946;SDS011;53853;51.982;5.928;2023-07-20T04:32:51;2.35;;;1.63;;
66946;SDS011;53853;51.982;5.928;2023-07-20T04:38:23;1.70;;;1.15;;
66946;SDS011;53853;51.982;5.928;2023-07-20T04:41:14;2.40;;;1.90;;
66946;SDS011;53853;51.982;5.928;2023-07-20T04:43:46;3.25;;;2.13;;
66946;SDS011;53853;51.982;5.928;2023-07-20T04:46:23;4.00;;;2.20;;
66946;SDS011;53853;51.982;5.928;2023-07-20T04:48:56;4.03;;;2.20;;
66946;SDS011;53853;51.982;5.928;2023-07-20T04:51:29;2.42;;;1.77;;
66946;SDS011;53853;51.982;5.928;2023-07-20T04:53:59;2.92;;;1.85;;
66946;SDS011;53853;51.982;5.928;2023-07-20T04:56:33;1.90;;;1.50;;
66946;SDS011;53853;51.982;5.928;2023-07-20T04:59:06;3.07;;;1.57;;
66946;SDS011;53853;51.982;5.928;2023-07-20T05:01:36;1.92;;;1.50;;
66946;SDS011;53853;51.982;5.928;2023-07-20T05:04:09;2.00;;;1.65;;
66946;SDS011;53853;51.982;5.928;2023-07-20T05:06:39;2.58;;;1.85;;
66946;SDS011;53853;51.982;5.928;2023-07-20T05:09:09;2.17;;;1.52;;
66946;SDS011;53853;51.982;5.928;2023-07-20T05:11:39;2.90;;;1.73;;
66946;SDS011;53853;51.982;5.928;2023-07-20T05:14:11;2.60;;;1.63;;
66946;SDS011;53853;51.982;5.928;2023-07-20T05:16:41;4.38;;;2.45;;
66946;SDS011;53853;51.982;5.928;2023-07-20T05:19:13;3.25;;;1.50;;
66946;SDS011;53853;51.982;5.928;2023-07-20T05:21:43;2.97;;;1.98;;
66946;SDS011;53853;51.982;5.928;2023-07-20T05:24:14;2.63;;;1.90;;
66946;SDS011;53853;51.982;5.928;2023-07-20T05:26:44;2.08;;;1.58;;
66946;SDS011;53853;51.982;5.928;2023-07-20T05:29:14;3.65;;;2.10;;
66946;SDS011;53853;51.982;5.928;2023-07-20T05:31:44;2.75;;;1.85;;
66946;SDS011;53853;51.982;5.928;2023-07-20T05:34:16;2.15;;;1.52;;
66946;SDS011;53853;51.982;5.928;2023-07-20T05:36:46;3.75;;;1.75;;
66946;SDS011;53853;51.982;5.928;2023-07-20T05:39:16;2.50;;;1.10;;
66946;SDS011;53853;51.982;5.928;2023-07-20T05:41:46;2.42;;;1.70;;
66946;SDS011;53853;51.982;5.928;2023-07-20T05:44:16;2.03;;;1.40;;
66946;SDS011;53853;51.982;5.928;2023-07-20T05:46:46;1.73;;;1.38;;
66946;SDS011;53853;51.982;5.928;2023-07-20T05:49:21;1.40;;;1.10;;
66946;SDS011;53853;51.982;5.928;2023-07-20T05:51:51;1.83;;;1.40;;
66946;SDS011;53853;51.982;5.928;2023-07-20T05:54:21;2.70;;;1.27;;
66946;SDS011;53853;51.982;5.928;2023-07-20T05:56:52;2.22;;;1.60;;
66946;SDS011;53853;51.982;5.928;2023-07-20T05:59:22;2.70;;;1.50;;
66946;SDS011;53853;51.982;5.928;2023-07-20T06:01:53;1.67;;;1.00;;
66946;SDS011;53853;51.982;5.928;2023-07-20T06:04:26;1.75;;;1.10;;
66946;SDS011;53853;51.982;5.928;2023-07-20T06:06:56;1.90;;;0.93;;
66946;SDS011;53853;51.982;5.928;2023-07-20T06:09:26;1.08;;;0.77;;
66946;SDS011;53853;51.982;5.928;2023-07-20T06:11:55;1.25;;;0.85;;
66946;SDS011;53853;51.982;5.928;2023-07-20T06:14:25;1.15;;;0.80;;
66946;SDS011;53853;51.982;5.928;2023-07-20T06:16:55;1.92;;;0.95;;
66946;SDS011;53853;51.982;5.928;2023-07-20T06:19:28;1.13;;;0.80;;
66946;SDS011;53853;51.982;5.928;2023-07-20T06:21:58;1.98;;;0.80;;
66946;SDS011;53853;51.982;5.928;2023-07-20T06:24:28;1.20;;;0.70;;
66946;SDS011;53853;51.982;5.928;2023-07-20T06:26:57;1.30;;;0.60;;
66946;SDS011;53853;51.982;5.928;2023-07-20T06:29:28;1.42;;;0.80;;
66946;SDS011;53853;51.982;5.928;2023-07-20T06:31:58;1.55;;;0.82;;
66946;SDS011;53853;51.982;5.928;2023-07-20T06:34:30;2.03;;;0.95;;
66946;SDS011;53853;51.982;5.928;2023-07-20T06:37:02;1.85;;;0.80;;
66946;SDS011;53853;51.982;5.928;2023-07-20T06:39:33;1.65;;;1.00;;
66946;SDS011;53853;51.982;5.928;2023-07-20T06:42:03;2.00;;;0.63;;
66946;SDS011;53853;51.982;5.928;2023-07-20T06:44:33;0.93;;;0.70;;
66946;SDS011;53853;51.982;5.928;2023-07-20T06:47:03;2.25;;;0.70;;
66946;SDS011;53853;51.982;5.928;2023-07-20T06:49:36;1.23;;;0.75;;
66946;SDS011;53853;51.982;5.928;2023-07-20T06:52:06;2.47;;;0.77;;
66946;SDS011;53853;51.982;5.928;2023-07-20T06:54:36;0.98;;;0.63;;
66946;SDS011;53853;51.982;5.928;2023-07-20T06:57:06;0.80;;;0.60;;
66946;SDS011;53853;51.982;5.928;2023-07-20T06:59:36;0.95;;;0.60;;
66946;SDS011;53853;51.982;5.928;2023-07-20T07:02:06;0.88;;;0.60;;
66946;SDS011;53853;51.982;5.928;2023-07-20T07:04:38;0.85;;;0.52;;
66946;SDS011;53853;51.982;5.928;2023-07-20T07:07:08;2.63;;;0.80;;
66946;SDS011;53853;51.982;5.928;2023-07-20T07:09:38;1.05;;;0.77;;
66946;SDS011;53853;51.982;5.928;2023-07-20T07:12:08;1.40;;;0.70;;
66946;SDS011;53853;51.982;5.928;2023-07-20T07:14:38;2.83;;;1.33;;
66946;SDS011;53853;51.982;5.928;2023-07-20T07:17:08;4.00;;;0.95;;
66946;SDS011;53853;51.982;5.928;2023-07-20T07:19:40;1.52;;;0.73;;
66946;SDS011;53853;51.982;5.928;2023-07-20T07:22:10;1.98;;;0.73;;
66946;SDS011;53853;51.982;5.928;2023-07-20T07:24:40;1.13;;;0.70;;
66946;SDS011;53853;51.982;5.928;2023-07-20T07:27:10;1.75;;;0.80;;
66946;SDS011;53853;51.982;5.928;2023-07-20T07:29:41;1.48;;;0.70;;
66946;SDS011;53853;51.982;5.928;2023-07-20T07:32:12;1.95;;;1.02;;
66946;SDS011;53853;51.982;5.928;2023-07-20T07:34:45;1.00;;;0.82;;
66946;SDS011;53853;51.982;5.928;2023-07-20T07:37:15;2.35;;;0.90;;
66946;SDS011;53853;51.982;5.928;2023-07-20T07:39:45;1.95;;;0.90;;
66946;SDS011;53853;51.982;5.928;2023-07-20T07:42:15;1.90;;;0.80;;
66946;SDS011;53853;51.982;5.928;2023-07-20T07:44:45;1.48;;;0.80;;
66946;SDS011;53853;51.982;5.928;2023-07-20T07:47:15;1.70;;;0.80;;
66946;SDS011;53853;51.982;5.928;2023-07-20T07:49:47;1.63;;;0.70;;
66946;SDS011;53853;51.982;5.928;2023-07-20T07:52:17;1.08;;;0.63;;
66946;SDS011;53853;51.982;5.928;2023-07-20T07:54:47;1.25;;;0.70;;
66946;SDS011;53853;51.982;5.928;2023-07-20T07:57:17;0.82;;;0.65;;
66946;SDS011;53853;51.982;5.928;2023-07-20T07:59:47;1.50;;;0.80;;
66946;SDS011;53853;51.982;5.928;2023-07-20T08:02:17;0.80;;;0.60;;
66946;SDS011;53853;51.982;5.928;2023-07-20T08:04:50;1.80;;;0.80;;
66946;SDS011;53853;51.982;5.928;2023-07-20T08:07:20;1.45;;;0.70;;
66946;SDS011;53853;51.982;5.928;2023-07-20T08:09:50;2.33;;;0.90;;
66946;SDS011;53853;51.982;5.928;2023-07-20T08:12:20;2.05;;;1.05;;
66946;SDS011;53853;51.982;5.928;2023-07-20T08:14:50;1.27;;;0.70;;
66946;SDS011;53853;51.982;5.928;2023-07-20T08:17:21;1.85;;;1.23;;
66946;SDS011;53853;51.982;5.928;2023-07-20T08:19:53;1.90;;;0.80;;
66946;SDS011;53853;51.982;5.928;2023-07-20T08:22:23;1.00;;;0.70;;
66946;SDS011;53853;51.982;5.928;2023-07-20T08:24:53;0.60;;;0.47;;
66946;SDS011;53853;51.982;5.928;2023-07-20T08:27:23;1.27;;;0.75;;
66946;SDS011;53853;51.982;5.928;2023-07-20T08:29:53;1.55;;;0.73;;
66946;SDS011;53853;51.982;5.928;2023-07-20T08:32:23;1.35;;;0.70;;
66946;SDS011;53853;51.982;5.928;2023-07-20T08:34:56;1.95;;;0.88;;
66946;SDS011;53853;51.982;5.928;2023-07-20T08:37:26;1.23;;;0.70;;
66946;SDS011;53853;51.982;5.928;2023-07-20T08:39:56;1.48;;;0.80;;
66946;SDS011;53853;51.982;5.928;2023-07-20T08:42:26;0.85;;;0.55;;
66946;SDS011;53853;51.982;5.928;2023-07-20T08:44:57;1.27;;;0.73;;
66946;SDS011;53853;51.982;5.928;2023-07-20T08:47:28;0.75;;;0.57;;
66946;SDS011;53853;51.982;5.928;2023-07-20T08:50:01;0.82;;;0.47;;
66946;SDS011;53853;51.982;5.928;2023-07-20T08:52:34;1.58;;;0.80;;
66946;SDS011;53853;51.982;5.928;2023-07-20T08:55:04;1.40;;;0.70;;
66946;SDS011;53853;51.982;5.928;2023-07-20T08:57:35;1.40;;;0.60;;
66946;SDS011;53853;51.982;5.928;2023-07-20T09:00:08;0.98;;;0.60;;
66946;SDS011;53853;51.982;5.928;2023-07-20T09:02:43;1.48;;;0.80;;
66946;SDS011;53853;51.982;5.928;2023-07-20T09:05:18;1.33;;;0.70;;
66946;SDS011;53853;51.982;5.928;2023-07-20T09:07:48;1.17;;;0.55;;
66946;SDS011;53853;51.982;5.928;2023-07-20T09:10:20;1.27;;;0.70;;
66946;SDS011;53853;51.982;5.928;2023-07-20T09:12:50;2.00;;;0.70;;
66946;SDS011;53853;51.982;5.928;2023-07-20T09:15:21;1.58;;;0.88;;
66946;SDS011;53853;51.982;5.928;2023-07-20T09:17:51;1.13;;;0.70;;
66946;SDS011;53853;51.982;5.928;2023-07-20T09:20:24;1.92;;;0.60;;
66946;SDS011;53853;51.982;5.928;2023-07-20T09:22:54;0.82;;;0.60;;
66946;SDS011;53853;51.982;5.928;2023-07-20T09:25:25;1.27;;;0.80;;
66946;SDS011;53853;51.982;5.928;2023-07-20T09:27:56;1.70;;;0.70;;
66946;SDS011;53853;51.982;5.928;2023-07-20T09:30:31;1.50;;;0.70;;
66946;SDS011;53853;51.982;5.928;2023-07-20T09:33:01;0.98;;;0.60;;
66946;SDS011;53853;51.982;5.928;2023-07-20T09:35:33;1.30;;;0.70;;
66946;SDS011;53853;51.982;5.928;2023-07-20T09:38:03;3.25;;;0.90;;
66946;SDS011;53853;51.982;5.928;2023-07-20T09:40:37;0.70;;;0.50;;
66946;SDS011;53853;51.982;5.928;2023-07-20T09:43:07;0.95;;;0.65;;
66946;SDS011;53853;51.982;5.928;2023-07-20T09:45:39;1.65;;;0.90;;
66946;SDS011;53853;51.982;5.928;2023-07-20T09:48:10;1.88;;;1.00;;
66946;SDS011;53853;51.982;5.928;2023-07-20T09:50:48;1.65;;;0.93;;
66946;SDS011;53853;51.982;5.928;2023-07-20T09:53:18;1.70;;;0.90;;
66946;SDS011;53853;51.982;5.928;2023-07-20T09:55:49;2.13;;;0.77;;
66946;SDS011;53853;51.982;5.928;2023-07-20T09:58:19;1.52;;;0.65;;
66946;SDS011;53853;51.982;5.928;2023-07-20T10:00:50;1.10;;;0.68;;
66946;SDS011;53853;51.982;5.928;2023-07-20T10:03:25;1.60;;;0.85;;
66946;SDS011;53853;51.982;5.928;2023-07-20T10:06:02;1.48;;;0.85;;
66946;SDS011;53853;51.982;5.928;2023-07-20T10:08:37;1.02;;;0.60;;
66946;SDS011;53853;51.982;5.928;2023-07-20T10:11:09;1.30;;;0.70;;
66946;SDS011;53853;51.982;5.928;2023-07-20T10:13:40;2.38;;;0.70;;
66946;SDS011;53853;51.982;5.928;2023-07-20T10:16:14;1.40;;;0.60;;
66946;SDS011;53853;51.982;5.928;2023-07-20T10:18:51;1.45;;;0.70;;
66946;SDS011;53853;51.982;5.928;2023-07-20T10:21:32;1.23;;;0.55;;
66946;SDS011;53853;51.982;5.928;2023-07-20T10:24:06;0.88;;;0.80;;
66946;SDS011;53853;51.982;5.928;2023-07-20T10:26:37;1.15;;;0.80;;
66946;SDS011;53853;51.982;5.928;2023-07-20T10:29:07;1.50;;;0.80;;
66946;SDS011;53853;51.982;5.928;2023-07-20T10:31:37;2.58;;;1.30;;
66946;SDS011;53853;51.982;5.928;2023-07-20T10:34:07;2.05;;;0.75;;
66946;SDS011;53853;51.982;5.928;2023-07-20T10:36:46;1.15;;;0.68;;
66946;SDS011;53853;51.982;5.928;2023-07-20T10:39:24;2.15;;;0.80;;
66946;SDS011;53853;51.982;5.928;2023-07-20T10:41:59;1.02;;;0.68;;
66946;SDS011;53853;51.982;5.928;2023-07-20T10:44:30;2.10;;;1.20;;
66946;SDS011;53853;51.982;5.928;2023-07-20T10:47:01;1.70;;;0.93;;
66946;SDS011;53853;51.982;5.928;2023-07-20T10:49:32;2.10;;;0.90;;
66946;SDS011;53853;51.982;5.928;2023-07-20T10:52:08;1.83;;;1.00;;
66946;SDS011;53853;51.982;5.928;2023-07-20T10:54:49;1.88;;;0.95;;
66946;SDS011;53853;51.982;5.928;2023-07-20T10:57:23;1.50;;;0.68;;
66946;SDS011;53853;51.982;5.928;2023-07-20T11:00:06;1.77;;;1.00;;
66946;SDS011;53853;51.982;5.928;2023-07-20T11:02:44;1.30;;;0.60;;
66946;SDS011;53853;51.982;5.928;2023-07-20T11:08:05;1.55;;;0.73;;
66946;SDS011;53853;51.982;5.928;2023-07-20T11:10:39;1.83;;;0.95;;
66946;SDS011;53853;51.982;5.928;2023-07-20T11:16:03;1.20;;;0.90;;
66946;SDS011;53853;51.982;5.928;2023-07-20T11:18:34;1.88;;;0.93;;
66946;SDS011;53853;51.982;5.928;2023-07-20T11:21:10;3.25;;;0.95;;
66946;SDS011;53853;51.982;5.928;2023-07-20T11:26:12;1.77;;;0.70;;
66946;SDS011;53853;51.982;5.928;2023-07-20T11:28:42;1.42;;;0.70;;
66946;SDS011;53853;51.982;5.928;2023-07-20T11:31:17;1.30;;;0.70;;
66946;SDS011;53853;51.982;5.928;2023-07-20T11:33:47;1.13;;;0.68;;
66946;SDS011;53853;51.982;5.928;2023-07-20T11:36:17;0.55;;;0.40;;
66946;SDS011;53853;51.982;5.928;2023-07-20T11:38:50;1.05;;;0.50;;
66946;SDS011;53853;51.982;5.928;2023-07-20T11:41:20;1.92;;;0.98;;
66946;SDS011;53853;51.982;5.928;2023-07-20T11:43:50;1.73;;;0.75;;
66946;SDS011;53853;51.982;5.928;2023-07-20T11:46:20;1.38;;;0.70;;
66946;SDS011;53853;51.982;5.928;2023-07-20T11:48:55;1.58;;;0.70;;
66946;SDS011;53853;51.982;5.928;2023-07-20T11:51:26;1.70;;;0.70;;
66946;SDS011;53853;51.982;5.928;2023-07-20T11:54:01;2.13;;;1.08;;
66946;SDS011;53853;51.982;5.928;2023-07-20T11:56:31;0.93;;;0.50;;
66946;SDS011;53853;51.982;5.928;2023-07-20T11:59:01;2.17;;;0.93;;
66946;SDS011;53853;51.982;5.928;2023-07-20T12:01:31;2.35;;;0.80;;
66946;SDS011;53853;51.982;5.928;2023-07-20T12:04:02;1.55;;;0.70;;
66946;SDS011;53853;51.982;5.928;2023-07-20T12:06:32;1.10;;;0.70;;
66946;SDS011;53853;51.982;5.928;2023-07-20T12:09:05;1.65;;;1.10;;
66946;SDS011;53853;51.982;5.928;2023-07-20T12:11:42;0.98;;;0.60;;
66946;SDS011;53853;51.982;5.928;2023-07-20T12:14:13;1.95;;;1.20;;
66946;SDS011;53853;51.982;5.928;2023-07-20T12:16:43;2.70;;;0.98;;
66946;SDS011;53853;51.982;5.928;2023-07-20T12:19:20;2.63;;;1.00;;
66946;SDS011;53853;51.982;5.928;2023-07-20T12:21:57;1.83;;;1.02;;
66946;SDS011;53853;51.982;5.928;2023-07-20T12:24:30;3.83;;;0.90;;
66946;SDS011;53853;51.982;5.928;2023-07-20T12:27:00;1.67;;;0.90;;
66946;SDS011;53853;51.982;5.928;2023-07-20T12:29:30;1.13;;;0.73;;
66946;SDS011;53853;51.982;5.928;2023-07-20T12:32:02;1.65;;;0.60;;
66946;SDS011;53853;51.982;5.928;2023-07-20T12:34:33;1.73;;;0.88;;
66946;SDS011;53853;51.982;5.928;2023-07-20T12:37:04;1.48;;;0.70;;
66946;SDS011;53853;51.982;5.928;2023-07-20T12:39:37;1.30;;;0.70;;
66946;SDS011;53853;51.982;5.928;2023-07-20T12:42:10;1.95;;;0.90;;
66946;SDS011;53853;51.982;5.928;2023-07-20T12:44:40;2.33;;;0.70;;
66946;SDS011;53853;51.982;5.928;2023-07-20T12:47:10;0.75;;;0.60;;
66946;SDS011;53853;51.982;5.928;2023-07-20T12:49:40;2.45;;;0.75;;
66946;SDS011;53853;51.982;5.928;2023-07-20T12:52:12;2.00;;;0.80;;
66946;SDS011;53853;51.982;5.928;2023-07-20T12:54:44;1.73;;;0.80;;
66946;SDS011;53853;51.982;5.928;2023-07-20T12:57:14;1.27;;;0.80;;
66946;SDS011;53853;51.982;5.928;2023-07-20T12:59:44;2.42;;;0.82;;
66946;SDS011;53853;51.982;5.928;2023-07-20T13:02:14;1.70;;;0.73;;
66946;SDS011;53853;51.982;5.928;2023-07-20T13:04:44;1.77;;;0.93;;
66946;SDS011;53853;51.982;5.928;2023-07-20T13:07:14;1.05;;;0.63;;
66946;SDS011;53853;51.982;5.928;2023-07-20T13:09:46;1.05;;;0.65;;
66946;SDS011;53853;51.982;5.928;2023-07-20T13:12:16;1.00;;;0.75;;
66946;SDS011;53853;51.982;5.928;2023-07-20T13:14:46;0.88;;;0.47;;
66946;SDS011;53853;51.982;5.928;2023-07-20T13:17:16;1.35;;;0.70;;
66946;SDS011;53853;51.982;5.928;2023-07-20T13:19:46;2.03;;;0.88;;
66946;SDS011;53853;51.982;5.928;2023-07-20T13:22:16;1.50;;;0.60;;
66946;SDS011;53853;51.982;5.928;2023-07-20T13:24:49;2.45;;;0.70;;
66946;SDS011;53853;51.982;5.928;2023-07-20T13:27:19;1.70;;;0.82;;
66946;SDS011;53853;51.982;5.928;2023-07-20T13:29:51;1.25;;;0.75;;
66946;SDS011;53853;51.982;5.928;2023-07-20T13:32:21;2.67;;;0.70;;
66946;SDS011;53853;51.982;5.928;2023-07-20T13:34:52;1.35;;;0.50;;
66946;SDS011;53853;51.982;5.928;2023-07-20T13:37:21;2.58;;;0.93;;
66946;SDS011;53853;51.982;5.928;2023-07-20T13:39:55;1.10;;;0.70;;
66946;SDS011;53853;51.982;5.928;2023-07-20T13:42:25;0.82;;;0.52;;
66946;SDS011;53853;51.982;5.928;2023-07-20T13:44:55;1.38;;;0.73;;
66946;SDS011;53853;51.982;5.928;2023-07-20T13:47:25;1.40;;;0.73;;
66946;SDS011;53853;51.982;5.928;2023-07-20T13:49:55;1.63;;;0.70;;
66946;SDS011;53853;51.982;5.928;2023-07-20T13:52:25;0.40;;;0.40;;
66946;SDS011;53853;51.982;5.928;2023-07-20T13:54:58;2.58;;;0.90;;
66946;SDS011;53853;51.982;5.928;2023-07-20T13:57:28;0.70;;;0.50;;
66946;SDS011;53853;51.982;5.928;2023-07-20T13:59:57;1.10;;;0.60;;
66946;SDS011;53853;51.982;5.928;2023-07-20T14:02:37;1.15;;;0.77;;
66946;SDS011;53853;51.982;5.928;2023-07-20T14:05:08;1.05;;;0.60;;
66946;SDS011;53853;51.982;5.928;2023-07-20T14:07:38;1.95;;;0.82;;
66946;SDS011;53853;51.982;5.928;2023-07-20T14:10:11;1.58;;;0.75;;
66946;SDS011;53853;51.982;5.928;2023-07-20T14:12:41;3.55;;;0.88;;
66946;SDS011;53853;51.982;5.928;2023-07-20T14:15:11;1.15;;;0.70;;
66946;SDS011;53853;51.982;5.928;2023-07-20T14:17:41;1.65;;;0.75;;
66946;SDS011;53853;51.982;5.928;2023-07-20T14:20:11;1.38;;;0.52;;
66946;SDS011;53853;51.982;5.928;2023-07-20T14:22:41;1.40;;;0.70;;
66946;SDS011;53853;51.982;5.928;2023-07-20T14:25:16;0.93;;;0.50;;
66946;SDS011;53853;51.982;5.928;2023-07-20T14:27:46;1.15;;;0.70;;
66946;SDS011;53853;51.982;5.928;2023-07-20T14:30:15;2.78;;;0.88;;
66946;SDS011;53853;51.982;5.928;2023-07-20T14:32:45;1.10;;;0.70;;
66946;SDS011;53853;51.982;5.928;2023-07-20T14:35:15;0.77;;;0.50;;
66946;SDS011;53853;51.982;5.928;2023-07-20T14:37:45;2.22;;;0.90;;
66946;SDS011;53853;51.982;5.928;2023-07-20T14:40:18;1.52;;;0.52;;
66946;SDS011;53853;51.982;5.928;2023-07-20T14:42:48;0.82;;;0.55;;
66946;SDS011;53853;51.982;5.928;2023-07-20T14:45:18;2.17;;;1.02;;
66946;SDS011;53853;51.982;5.928;2023-07-20T14:47:48;1.35;;;0.63;;
66946;SDS011;53853;51.982;5.928;2023-07-20T14:50:20;0.82;;;0.52;;
66946;SDS011;53853;51.982;5.928;2023-07-20T14:52:50;1.15;;;0.60;;
66946;SDS011;53853;51.982;5.928;2023-07-20T14:55:23;1.77;;;0.70;;
66946;SDS011;53853;51.982;5.928;2023-07-20T14:57:53;1.23;;;0.82;;
66946;SDS011;53853;51.982;5.928;2023-07-20T15:00:23;3.80;;;1.00;;
66946;SDS011;53853;51.982;5.928;2023-07-20T15:02:53;1.08;;;0.70;;
66946;SDS011;53853;51.982;5.928;2023-07-20T15:05:23;2.92;;;1.00;;
66946;SDS011;53853;51.982;5.928;2023-07-20T15:07:54;1.92;;;1.10;;
66946;SDS011;53853;51.982;5.928;2023-07-20T15:10:27;2.65;;;1.23;;
66946;SDS011;53853;51.982;5.928;2023-07-20T15:12:58;3.00;;;0.75;;
66946;SDS011;53853;51.982;5.928;2023-07-20T15:15:28;2.10;;;0.95;;
66946;SDS011;53853;51.982;5.928;2023-07-20T15:17:59;1.55;;;0.60;;
66946;SDS011;53853;51.982;5.928;2023-07-20T15:20:28;1.75;;;0.60;;
66946;SDS011;53853;51.982;5.928;2023-07-20T15:22:59;1.80;;;0.60;;
66946;SDS011;53853;51.982;5.928;2023-07-20T15:25:31;0.80;;;0.50;;
66946;SDS011;53853;51.982;5.928;2023-07-20T15:28:01;1.55;;;0.40;;
66946;SDS011;53853;51.982;5.928;2023-07-20T15:30:31;0.90;;;0.50;;